createdAt,value
2022-11-24T00:03:33.598Z,18.17
2022-11-24T00:06:20.681Z,18.90
2022-11-24T00:09:08.170Z,19.40
2022-11-24T00:11:55.221Z,19.45
2022-11-24T00:14:42.288Z,20.10
2022-11-24T00:17:29.591Z,20.67
2022-11-24T00:20:16.793Z,20.92
2022-11-24T00:23:03.811Z,20.27
2022-11-24T00:25:50.890Z,20.27
2022-11-24T00:28:38.717Z,20.38
2022-11-24T00:31:28.441Z,19.33
2022-11-24T00:34:15.617Z,20.50
2022-11-24T00:37:02.741Z,20.60
2022-11-24T00:39:49.802Z,19.75
2022-11-24T00:42:36.849Z,19.13
2022-11-24T00:45:23.878Z,19.25
2022-11-24T00:48:11.101Z,19.83
2022-11-24T00:51:00.546Z,20.42
2022-11-24T00:53:48.293Z,19.85
2022-11-24T00:56:35.617Z,18.92
2022-11-24T00:59:22.668Z,19.05
2022-11-24T01:02:09.821Z,19.00
2022-11-24T01:04:56.943Z,19.30
2022-11-24T01:07:44.059Z,19.13
2022-11-24T01:10:31.768Z,18.13
2022-11-24T01:13:18.850Z,17.77
2022-11-24T01:16:06.512Z,18.40
2022-11-24T01:18:53.737Z,16.88
2022-11-24T01:21:40.891Z,18.02
2022-11-24T01:24:27.927Z,18.27
2022-11-24T01:27:14.974Z,17.90
2022-11-24T01:30:02.307Z,18.45
2022-11-24T01:32:49.377Z,19.02
2022-11-24T01:35:36.783Z,18.17
2022-11-24T01:38:24.450Z,19.02
2022-11-24T01:41:14.022Z,18.00
2022-11-24T01:44:01.122Z,19.73
2022-11-24T01:46:51.318Z,20.08
2022-11-24T01:52:45.128Z,19.05
2022-11-24T01:55:37.091Z,19.20
2022-11-24T01:58:28.769Z,17.63
2022-11-24T02:01:15.851Z,18.17
2022-11-24T02:04:06.586Z,17.05
2022-11-24T02:06:55.743Z,17.45
2022-11-24T02:09:56.647Z,16.83
2022-11-24T02:12:46.863Z,15.13
2022-11-24T02:18:21.877Z,14.85
2022-11-24T02:21:14.844Z,15.27
2022-11-24T02:24:31.465Z,15.75
2022-11-24T02:27:20.050Z,14.60
2022-11-24T02:30:07.555Z,14.45
2022-11-24T02:32:55.195Z,14.00
2022-11-24T02:35:42.937Z,14.13
2022-11-24T02:38:34.776Z,14.32
2022-11-24T02:41:25.667Z,12.48
2022-11-24T02:44:16.295Z,12.60
2022-11-24T02:47:06.015Z,12.55
2022-11-24T02:49:53.077Z,13.25
2022-11-24T02:52:40.192Z,12.90
2022-11-24T02:55:27.258Z,12.93
2022-11-24T02:58:15.179Z,12.90
2022-11-24T03:01:02.568Z,12.30
2022-11-24T03:03:49.642Z,12.25
2022-11-24T03:06:36.706Z,11.68
2022-11-24T03:09:23.905Z,11.60
2022-11-24T03:12:10.938Z,11.13
2022-11-24T03:14:58.078Z,11.38
2022-11-24T03:17:45.120Z,10.43
2022-11-24T03:20:32.630Z,11.73
2022-11-24T03:23:19.962Z,11.55
2022-11-24T03:26:09.023Z,10.65
2022-11-24T03:28:57.396Z,10.25
2022-11-24T03:31:44.504Z,11.35
2022-11-24T03:34:31.733Z,10.85
2022-11-24T03:37:18.980Z,10.63
2022-11-24T03:40:06.623Z,10.75
2022-11-24T03:42:53.673Z,11.35
2022-11-24T03:45:47.801Z,10.02
2022-11-24T03:48:35.112Z,10.32
2022-11-24T03:51:22.175Z,9.85
2022-11-24T03:54:09.328Z,9.73
2022-11-24T03:56:56.378Z,9.52
2022-11-24T03:59:43.452Z,8.90
2022-11-24T04:02:30.609Z,9.60
2022-11-24T04:05:17.750Z,8.77
2022-11-24T04:08:05.537Z,9.13
2022-11-24T04:10:54.530Z,8.43
2022-11-24T04:13:41.551Z,8.18
2022-11-24T04:16:28.681Z,9.10
2022-11-24T04:19:15.792Z,8.30
2022-11-24T04:22:02.814Z,7.40
2022-11-24T04:24:49.908Z,7.57
2022-11-24T04:27:38.068Z,7.13
2022-11-24T04:30:28.622Z,6.93
2022-11-24T04:33:15.698Z,7.15
2022-11-24T04:36:02.763Z,6.45
2022-11-24T04:39:24.332Z,7.15
2022-11-24T04:44:47.255Z,6.32
2022-11-24T04:47:34.954Z,7.25
2022-11-24T04:50:22.141Z,7.35
2022-11-24T04:53:11.107Z,7.07
2022-11-24T04:55:58.866Z,7.22
2022-11-24T04:58:49.168Z,7.13
2022-11-24T05:01:36.237Z,8.00
2022-11-24T05:04:23.659Z,7.20
2022-11-24T05:07:18.350Z,6.93
2022-11-24T05:10:25.007Z,8.00
2022-11-24T05:13:14.612Z,7.10
2022-11-24T05:16:01.907Z,7.13
2022-11-24T05:18:49.063Z,7.53
2022-11-24T05:21:36.090Z,7.28
2022-11-24T05:24:23.106Z,7.05
2022-11-24T05:27:10.103Z,7.55
2022-11-24T05:29:57.367Z,7.75
2022-11-24T05:32:44.336Z,8.00
2022-11-24T05:35:32.075Z,8.30
2022-11-24T05:38:19.186Z,8.25
2022-11-24T05:41:06.618Z,8.73
2022-11-24T05:43:53.691Z,7.70
2022-11-24T05:46:40.780Z,7.88
2022-11-24T05:49:27.814Z,8.40
2022-11-24T05:52:15.687Z,8.52
2022-11-24T05:55:04.703Z,8.63
2022-11-24T05:57:58.571Z,8.82
2022-11-24T06:00:45.633Z,7.95
2022-11-24T06:03:32.662Z,8.80
2022-11-24T06:06:19.733Z,8.73
2022-11-24T06:09:09.703Z,9.45
2022-11-24T06:11:56.750Z,9.38
2022-11-24T06:14:43.830Z,9.82
2022-11-24T06:17:31.078Z,8.75
2022-11-24T06:20:18.248Z,8.40
2022-11-24T06:23:05.256Z,8.77
2022-11-24T06:25:52.415Z,9.45
2022-11-24T06:28:39.574Z,9.15
2022-11-24T06:31:26.715Z,9.23
2022-11-24T06:34:13.932Z,10.00
2022-11-24T06:37:02.133Z,10.10
2022-11-24T06:39:49.418Z,9.88
2022-11-24T06:42:37.453Z,9.20
2022-11-24T06:45:25.371Z,9.65
2022-11-24T06:48:12.422Z,9.68
2022-11-24T06:51:05.422Z,10.43
2022-11-24T06:53:52.479Z,10.23
2022-11-24T06:56:39.687Z,9.73
2022-11-24T06:59:27.120Z,11.18
2022-11-24T07:02:14.136Z,11.13
2022-11-24T07:05:01.179Z,12.55
2022-11-24T07:07:50.743Z,10.70
2022-11-24T07:10:38.322Z,11.60
2022-11-24T07:13:25.395Z,11.10
2022-11-24T07:16:17.881Z,10.68
2022-11-24T07:19:05.004Z,13.30
2022-11-24T07:21:52.140Z,12.18
2022-11-24T07:24:39.195Z,11.98
2022-11-24T07:27:27.844Z,11.73
2022-11-24T07:30:14.927Z,10.35
2022-11-24T07:33:03.114Z,11.00
2022-11-24T07:35:50.083Z,10.90
2022-11-24T07:38:37.152Z,11.07
2022-11-24T07:41:24.170Z,11.07
2022-11-24T07:44:11.248Z,12.75
2022-11-24T07:46:58.305Z,12.68
2022-11-24T07:49:45.440Z,11.18
2022-11-24T07:52:32.449Z,12.32
2022-11-24T07:55:19.559Z,12.43
2022-11-24T07:58:06.691Z,17.25
2022-11-24T08:00:53.806Z,13.77
2022-11-24T08:03:41.486Z,12.57
2022-11-24T08:06:36.243Z,12.73
2022-11-24T08:09:27.696Z,12.45
2022-11-24T08:12:16.604Z,11.85
2022-11-24T08:15:09.467Z,13.00
2022-11-24T08:18:01.237Z,10.90
2022-11-24T08:23:35.279Z,10.77
2022-11-24T08:26:23.113Z,11.43
2022-11-24T08:29:10.789Z,11.45
2022-11-24T08:31:58.263Z,11.15
2022-11-24T08:34:45.329Z,10.90
2022-11-24T08:37:32.909Z,10.63
2022-11-24T08:40:20.470Z,9.80
2022-11-24T08:43:07.510Z,10.20
2022-11-24T08:45:54.767Z,10.27
2022-11-24T08:48:41.863Z,9.77
2022-11-24T08:51:28.954Z,9.38
2022-11-24T08:54:18.739Z,10.38
2022-11-24T08:57:05.849Z,9.05
2022-11-24T08:59:52.989Z,9.35
2022-11-24T09:02:40.224Z,10.23
2022-11-24T09:05:51.081Z,10.57
2022-11-24T09:08:34.388Z,11.25
2022-11-24T09:11:22.415Z,10.73
2022-11-24T09:14:09.487Z,11.57
2022-11-24T09:16:56.590Z,12.57
2022-11-24T09:19:43.712Z,13.13
2022-11-24T09:22:31.446Z,13.20
2022-11-24T09:25:18.635Z,12.68
2022-11-24T09:28:05.851Z,12.50
2022-11-24T09:30:52.911Z,13.93
2022-11-24T09:33:40.859Z,13.65
2022-11-24T09:36:28.924Z,12.77
2022-11-24T09:39:15.932Z,12.25
2022-11-24T09:42:35.997Z,11.50
2022-11-24T09:46:04.512Z,11.25
2022-11-24T09:48:55.118Z,11.52
2022-11-24T09:51:47.039Z,11.43
2022-11-24T09:54:37.430Z,11.27
2022-11-24T09:57:26.820Z,11.32
2022-11-24T10:00:15.137Z,9.57
2022-11-24T10:03:02.420Z,9.85
2022-11-24T10:05:51.621Z,8.65
2022-11-24T10:08:38.646Z,9.00
2022-11-24T10:11:52.420Z,9.27
2022-11-24T10:15:01.818Z,9.55
2022-11-24T10:18:16.187Z,10.30
2022-11-24T10:21:24.916Z,8.80
2022-11-24T10:24:36.594Z,9.55
2022-11-24T10:27:34.047Z,8.40
2022-11-24T10:30:24.103Z,9.27
2022-11-24T10:33:28.756Z,14.63
2022-11-24T10:36:41.751Z,9.18
2022-11-24T10:39:58.584Z,10.00
2022-11-24T10:42:48.995Z,9.68
2022-11-24T10:45:37.955Z,9.00
2022-11-24T10:48:27.441Z,8.45
2022-11-24T10:51:41.733Z,7.53
2022-11-24T10:54:29.404Z,7.47
2022-11-24T10:57:27.974Z,7.43
2022-11-24T11:00:20.855Z,7.90
2022-11-24T11:03:17.928Z,8.00
2022-11-24T11:06:15.456Z,7.95
2022-11-24T11:09:08.565Z,7.43
2022-11-24T11:11:56.903Z,7.72
2022-11-24T11:14:48.468Z,7.20
2022-11-24T11:17:38.600Z,6.95
2022-11-24T11:23:24.161Z,6.35
2022-11-24T11:26:32.232Z,6.45
2022-11-24T11:35:37.828Z,5.93
2022-11-24T11:38:38.038Z,5.95
2022-11-24T11:44:36.018Z,5.93
2022-11-24T11:47:31.621Z,5.53
2022-11-24T11:50:27.574Z,6.05
2022-11-24T11:53:18.259Z,5.50
2022-11-24T11:56:16.648Z,5.55
2022-11-24T11:59:32.910Z,6.25
2022-11-24T12:02:50.056Z,6.20
2022-11-24T12:06:02.938Z,6.85
2022-11-24T12:09:21.738Z,8.85
2022-11-24T12:12:27.591Z,7.43
2022-11-24T12:15:30.485Z,7.30
2022-11-24T12:18:48.439Z,6.47
2022-11-24T12:21:40.720Z,5.85
2022-11-24T12:24:47.674Z,6.38
2022-11-24T12:28:03.794Z,6.38
2022-11-24T12:31:08.640Z,6.20
2022-11-24T12:34:07.816Z,6.10
2022-11-24T12:37:15.926Z,5.90
2022-11-24T12:40:08.855Z,6.35
2022-11-24T12:43:26.815Z,7.10
2022-11-24T12:46:47.754Z,7.22
2022-11-24T12:50:05.382Z,7.47
2022-11-24T12:53:13.782Z,6.65
2022-11-24T12:56:13.319Z,6.97
2022-11-24T12:59:39.823Z,7.00
2022-11-24T13:02:57.231Z,6.25
2022-11-24T13:06:17.004Z,6.57
2022-11-24T13:09:11.780Z,5.57
2022-11-24T13:12:13.489Z,5.35
2022-11-24T13:15:00.538Z,4.88
2022-11-24T13:18:05.127Z,5.60
2022-11-24T13:20:54.173Z,4.13
2022-11-24T13:23:41.246Z,4.20
2022-11-24T13:26:43.207Z,4.72
2022-11-24T13:29:32.844Z,4.65
2022-11-24T13:32:19.870Z,4.70
2022-11-24T13:35:16.466Z,3.85
2022-11-24T13:38:24.296Z,3.90
2022-11-24T13:41:34.302Z,3.83
2022-11-24T13:44:24.877Z,4.13
2022-11-24T13:47:35.964Z,4.45
2022-11-24T13:50:44.335Z,4.20
2022-11-24T13:53:45.699Z,3.85
2022-11-24T13:56:32.926Z,3.95
2022-11-24T13:59:33.093Z,4.53
2022-11-24T14:02:24.164Z,4.60
2022-11-24T14:05:19.864Z,3.72
2022-11-24T14:08:16.725Z,4.60
2022-11-24T14:11:13.068Z,4.10
2022-11-24T14:14:16.030Z,4.47
2022-11-24T14:17:24.226Z,3.67
2022-11-24T14:20:22.632Z,3.20
2022-11-24T14:23:10.445Z,3.50
2022-11-24T14:25:57.687Z,3.25
2022-11-24T14:28:45.586Z,3.00
2022-11-24T14:31:33.320Z,3.20
2022-11-24T14:34:22.233Z,3.78
2022-11-24T14:37:10.382Z,3.05
2022-11-24T14:39:57.408Z,3.03
2022-11-24T14:42:50.634Z,3.35
2022-11-24T14:45:37.828Z,3.20
2022-11-24T14:48:30.722Z,3.05
2022-11-24T14:51:26.944Z,3.05
2022-11-24T14:54:18.536Z,3.40
2022-11-24T14:57:21.949Z,3.45
2022-11-24T15:00:11.868Z,4.22
2022-11-24T15:03:02.062Z,3.83
2022-11-24T15:05:52.168Z,3.50
2022-11-24T15:11:34.348Z,4.00
2022-11-24T15:14:36.901Z,4.25
2022-11-24T15:17:27.529Z,4.35
2022-11-24T15:20:26.202Z,4.80
2022-11-24T15:23:16.333Z,5.70
2022-11-24T15:28:50.363Z,3.50
2022-11-24T15:31:38.835Z,4.18
2022-11-24T15:34:25.889Z,4.20
2022-11-24T15:37:13.220Z,3.50
2022-11-24T15:40:00.335Z,3.70
2022-11-24T15:42:54.955Z,3.50
2022-11-24T15:45:41.986Z,3.33
2022-11-24T15:48:29.638Z,4.03
2022-11-24T15:51:16.799Z,3.67
2022-11-24T15:54:04.186Z,3.33
2022-11-24T15:56:51.392Z,3.10
2022-11-24T15:59:38.807Z,4.38
2022-11-24T16:02:25.960Z,3.88
2022-11-24T16:05:14.202Z,4.38
2022-11-24T16:08:01.313Z,3.75
2022-11-24T16:10:48.387Z,3.88
2022-11-24T16:13:35.549Z,3.47
2022-11-24T16:16:25.007Z,3.22
2022-11-24T16:19:13.192Z,3.22
2022-11-24T16:22:00.498Z,2.90
2022-11-24T16:24:47.678Z,3.08
2022-11-24T16:27:35.016Z,3.25
2022-11-24T16:30:22.350Z,3.33
2022-11-24T16:33:09.648Z,3.55
2022-11-24T16:35:56.779Z,3.63
2022-11-24T16:38:44.158Z,3.20
2022-11-24T16:41:31.818Z,3.53
2022-11-24T16:44:19.046Z,2.53
2022-11-24T16:47:06.838Z,2.53
2022-11-24T16:49:53.964Z,2.40
2022-11-24T16:52:42.645Z,10.02
2022-11-24T16:55:29.896Z,10.60
2022-11-24T16:58:18.725Z,2.90
2022-11-24T17:01:08.585Z,2.83
2022-11-24T17:03:56.739Z,3.10
2022-11-24T17:06:44.334Z,3.78
2022-11-24T17:09:35.988Z,4.07
2022-11-24T17:12:28.431Z,3.85
2022-11-24T17:15:32.627Z,3.80
2022-11-24T17:18:25.430Z,3.60
2022-11-24T17:21:15.784Z,4.00
2022-11-24T17:24:09.026Z,3.78
2022-11-24T17:26:56.309Z,3.60
2022-11-24T17:29:43.594Z,3.00
2022-11-24T17:32:32.123Z,2.88
2022-11-24T17:35:20.037Z,4.18
2022-11-24T17:38:07.568Z,6.95
2022-11-24T17:40:56.455Z,2.90
2022-11-24T17:43:44.575Z,2.83
2022-11-24T17:46:33.549Z,2.78
2022-11-24T17:49:21.793Z,3.58
2022-11-24T17:52:09.668Z,2.70
2022-11-24T17:54:58.254Z,2.50
2022-11-24T17:57:46.047Z,2.40
2022-11-24T18:00:34.058Z,2.30
2022-11-24T18:03:22.585Z,2.25
2022-11-24T18:06:13.565Z,2.22
2022-11-24T18:09:01.373Z,2.30
2022-11-24T18:11:49.137Z,2.80
2022-11-24T18:14:37.262Z,2.50
2022-11-24T18:17:28.176Z,3.10
2022-11-24T18:20:17.364Z,2.80
2022-11-24T18:23:06.266Z,3.13
2022-11-24T18:26:00.101Z,2.92
2022-11-24T18:28:48.754Z,2.60
2022-11-24T18:31:37.145Z,3.03
2022-11-24T18:34:28.661Z,3.00
2022-11-24T18:37:16.929Z,3.03
2022-11-24T18:40:05.282Z,2.65
2022-11-24T18:42:53.423Z,2.83
2022-11-24T18:45:41.474Z,3.13
2022-11-24T18:48:30.184Z,2.63
2022-11-24T18:51:19.235Z,2.33
2022-11-24T18:54:07.587Z,2.05
2022-11-24T18:57:00.240Z,2.10
2022-11-24T18:59:50.959Z,1.73
2022-11-24T19:02:38.911Z,1.98
2022-11-24T19:05:26.654Z,2.15
2022-11-24T19:08:17.568Z,2.15
2022-11-24T19:11:07.706Z,1.63
2022-11-24T19:13:56.772Z,2.08
2022-11-24T19:16:45.531Z,1.88
2022-11-24T19:19:36.123Z,2.00
2022-11-24T19:22:23.391Z,2.10
2022-11-24T19:25:12.053Z,3.30
2022-11-24T19:27:59.911Z,2.30
2022-11-24T19:30:48.006Z,2.10
2022-11-24T19:33:36.548Z,2.40
2022-11-24T19:36:25.589Z,2.17
2022-11-24T19:39:15.990Z,1.95
2022-11-24T19:42:05.476Z,1.83
2022-11-24T19:44:56.636Z,1.88
2022-11-24T19:47:46.068Z,2.13
2022-11-24T19:50:35.222Z,1.65
2022-11-24T19:53:24.699Z,1.98
2022-11-24T19:56:22.658Z,2.13
2022-11-24T19:59:10.869Z,1.80
2022-11-24T20:01:59.982Z,1.92
2022-11-24T20:04:48.570Z,1.47
2022-11-24T20:07:37.023Z,1.70
2022-11-24T20:10:26.708Z,1.70
2022-11-24T20:13:14.808Z,3.38
2022-11-24T20:16:14.441Z,2.50
2022-11-24T20:19:08.281Z,3.15
2022-11-24T20:21:55.879Z,1.65
2022-11-24T20:24:43.775Z,2.22
2022-11-24T20:27:31.825Z,2.05
2022-11-24T20:30:19.963Z,3.63
2022-11-24T20:33:07.937Z,5.70
2022-11-24T20:35:56.378Z,3.38
2022-11-24T20:38:45.242Z,4.40
2022-11-24T20:41:36.034Z,5.20
2022-11-24T20:44:27.196Z,2.40
2022-11-24T20:47:15.327Z,3.33
2022-11-24T20:50:02.750Z,2.13
2022-11-24T20:52:51.899Z,5.05
2022-11-24T20:55:39.489Z,2.33
2022-11-24T20:58:27.143Z,6.30
2022-11-24T21:01:20.483Z,1.70
2022-11-24T21:04:10.330Z,6.03
2022-11-24T21:06:58.560Z,6.05
2022-11-24T21:09:47.249Z,1.88
2022-11-24T21:12:35.471Z,1.35
2022-11-24T21:15:24.419Z,1.58
2022-11-24T21:18:11.849Z,2.22
2022-11-24T21:20:59.628Z,1.70
2022-11-24T21:23:47.924Z,2.00
2022-11-24T21:26:37.054Z,2.03
2022-11-24T21:29:26.077Z,1.98
2022-11-24T21:32:13.323Z,2.70
2022-11-24T21:35:00.449Z,1.73
2022-11-24T21:37:47.669Z,1.63
2022-11-24T21:40:35.009Z,2.17
2022-11-24T21:43:21.998Z,3.60
2022-11-24T21:46:11.320Z,2.38
2022-11-24T21:48:58.443Z,6.95
2022-11-24T21:51:45.522Z,4.90
2022-11-24T21:54:32.932Z,6.88
2022-11-24T21:57:20.828Z,3.75
2022-11-24T22:00:08.100Z,1.48
2022-11-24T22:02:55.154Z,3.20
2022-11-24T22:05:42.691Z,1.27
2022-11-24T22:08:31.457Z,1.70
2022-11-24T22:11:21.481Z,1.40
2022-11-24T22:14:08.897Z,2.28
2022-11-24T22:16:55.975Z,8.50
2022-11-24T22:19:42.978Z,6.32
2022-11-24T22:22:29.979Z,1.40
2022-11-24T22:25:17.032Z,1.85
2022-11-24T22:28:04.129Z,1.75
2022-11-24T22:30:51.201Z,2.20
2022-11-24T22:33:38.480Z,4.90
2022-11-24T22:36:28.875Z,2.45
2022-11-24T22:39:15.952Z,2.00
2022-11-24T22:42:03.015Z,1.50
2022-11-24T22:44:50.129Z,1.50
2022-11-24T22:47:37.219Z,1.25
2022-11-24T22:50:24.258Z,1.85
2022-11-24T22:53:11.289Z,1.52
2022-11-24T22:56:06.804Z,1.67
2022-11-24T22:58:54.207Z,1.58
2022-11-24T23:01:41.292Z,1.88
2022-11-24T23:04:28.354Z,1.33
2022-11-24T23:07:15.521Z,1.58
2022-11-24T23:10:02.818Z,1.27
2022-11-24T23:12:50.187Z,1.33
2022-11-24T23:15:37.181Z,1.52
2022-11-24T23:18:24.280Z,1.20
2022-11-24T23:21:15.653Z,1.35
2022-11-24T23:24:04.772Z,2.42
2022-11-24T23:26:52.916Z,2.25
2022-11-24T23:29:40.098Z,1.98
2022-11-24T23:32:27.079Z,1.90
2022-11-24T23:35:14.307Z,1.27
2022-11-24T23:38:07.432Z,1.27
2022-11-24T23:40:57.776Z,1.40
2022-11-24T23:43:45.009Z,1.60
2022-11-24T23:46:32.761Z,1.50
2022-11-24T23:49:19.782Z,1.85
2022-11-24T23:52:07.127Z,1.67
2022-11-24T23:57:58.668Z,1.17
